sensor_id;sensor_type;location;lat;lon;timestamp;pressure;altitude;pressure_sealevel;temperature;humidity
50636;BME280;36598;46.054;11.130;2023-02-19T00:00:06;100057.91;;;8.51;69.19
50636;BME280;36598;46.054;11.130;2023-02-19T00:02:33;100060.03;;;8.27;70.29
50636;BME280;36598;46.054;11.130;2023-02-19T00:05:01;100061.22;;;8.30;69.81
50636;BME280;36598;46.054;11.130;2023-02-19T00:07:27;100053.31;;;8.28;70.46
50636;BME280;36598;46.054;11.130;2023-02-19T00:09:52;100046.34;;;8.38;70.39
50636;BME280;36598;46.054;11.130;2023-02-19T00:12:21;100044.56;;;8.19;70.00
50636;BME280;36598;46.054;11.130;2023-02-19T00:14:46;100046.72;;;7.99;70.90
50636;BME280;36598;46.054;11.130;2023-02-19T00:17:12;100049.16;;;8.08;70.97
50636;BME280;36598;46.054;11.130;2023-02-19T00:19:41;100045.81;;;8.25;70.50
50636;BME280;36598;46.054;11.130;2023-02-19T00:22:06;100047.19;;;8.09;71.74
50636;BME280;36598;46.054;11.130;2023-02-19T00:24:32;100041.25;;;8.03;71.88
50636;BME280;36598;46.054;11.130;2023-02-19T00:26:57;100031.75;;;7.97;71.90
50636;BME280;36598;46.054;11.130;2023-02-19T00:29:23;100035.63;;;7.96;72.80
50636;BME280;36598;46.054;11.130;2023-02-19T00:31:51;100033.63;;;8.26;70.97
50636;BME280;36598;46.054;11.130;2023-02-19T00:34:16;100036.31;;;8.19;71.92
50636;BME280;36598;46.054;11.130;2023-02-19T00:36:42;100040.38;;;8.33;71.20
50636;BME280;36598;46.054;11.130;2023-02-19T00:39:10;100038.84;;;8.35;71.10
50636;BME280;36598;46.054;11.130;2023-02-19T00:41:39;100036.94;;;8.43;70.49
50636;BME280;36598;46.054;11.130;2023-02-19T00:44:05;100050.81;;;8.50;71.20
50636;BME280;36598;46.054;11.130;2023-02-19T00:46:33;100044.16;;;8.55;70.46
50636;BME280;36598;46.054;11.130;2023-02-19T00:48:59;100037.91;;;8.61;70.07
50636;BME280;36598;46.054;11.130;2023-02-19T00:51:28;100038.63;;;8.55;70.90
50636;BME280;36598;46.054;11.130;2023-02-19T00:53:54;100043.72;;;8.49;71.31
50636;BME280;36598;46.054;11.130;2023-02-19T00:56:20;100033.63;;;8.67;70.01
50636;BME280;36598;46.054;11.130;2023-02-19T00:58:45;100029.97;;;8.52;70.85
50636;BME280;36598;46.054;11.130;2023-02-19T01:01:11;100039.75;;;8.46;71.36
50636;BME280;36598;46.054;11.130;2023-02-19T01:03:37;100028.06;;;8.64;70.78
50636;BME280;36598;46.054;11.130;2023-02-19T01:06:03;100030.69;;;8.46;71.26
50636;BME280;36598;46.054;11.130;2023-02-19T01:08:29;100028.00;;;8.53;70.72
50636;BME280;36598;46.054;11.130;2023-02-19T01:10:57;100033.34;;;8.80;69.26
50636;BME280;36598;46.054;11.130;2023-02-19T01:13:26;100029.59;;;8.20;71.96
50636;BME280;36598;46.054;11.130;2023-02-19T01:15:52;100038.91;;;8.42;71.32
50636;BME280;36598;46.054;11.130;2023-02-19T01:18:18;100036.00;;;8.28;71.58
50636;BME280;36598;46.054;11.130;2023-02-19T01:20:44;100034.25;;;8.13;71.42
50636;BME280;36598;46.054;11.130;2023-02-19T01:23:10;100034.38;;;8.23;71.00
50636;BME280;36598;46.054;11.130;2023-02-19T01:25:39;100029.81;;;8.01;72.23
50636;BME280;36598;46.054;11.130;2023-02-19T01:28:04;100031.44;;;7.42;74.42
50636;BME280;36598;46.054;11.130;2023-02-19T01:30:32;100031.03;;;7.40;75.37
50636;BME280;36598;46.054;11.130;2023-02-19T01:32:58;100021.53;;;8.01;73.21
50636;BME280;36598;46.054;11.130;2023-02-19T01:35:23;100020.03;;;8.07;72.55
50636;BME280;36598;46.054;11.130;2023-02-19T01:37:49;100017.97;;;8.00;72.42
50636;BME280;36598;46.054;11.130;2023-02-19T01:40:14;100019.47;;;8.28;71.61
50636;BME280;36598;46.054;11.130;2023-02-19T01:42:43;100012.31;;;8.23;72.10
50636;BME280;36598;46.054;11.130;2023-02-19T01:45:20;100003.69;;;8.28;72.10
50636;BME280;36598;46.054;11.130;2023-02-19T01:47:46;100004.88;;;8.27;71.77
50636;BME280;36598;46.054;11.130;2023-02-19T01:50:13;99998.69;;;8.38;70.79
50636;BME280;36598;46.054;11.130;2023-02-19T01:52:39;99997.03;;;8.33;70.94
50636;BME280;36598;46.054;11.130;2023-02-19T01:55:06;99992.63;;;8.25;71.07
50636;BME280;36598;46.054;11.130;2023-02-19T01:57:32;99991.59;;;8.37;70.94
50636;BME280;36598;46.054;11.130;2023-02-19T02:00:05;99987.94;;;8.29;70.49
50636;BME280;36598;46.054;11.130;2023-02-19T02:02:34;99995.78;;;8.23;71.61
50636;BME280;36598;46.054;11.130;2023-02-19T02:05:03;99985.97;;;8.29;70.91
50636;BME280;36598;46.054;11.130;2023-02-19T02:07:51;99991.53;;;8.33;70.77
50636;BME280;36598;46.054;11.130;2023-02-19T02:10:35;99980.34;;;8.15;71.67
50636;BME280;36598;46.054;11.130;2023-02-19T02:13:03;99971.84;;;8.35;71.24
50636;BME280;36598;46.054;11.130;2023-02-19T02:15:34;99978.25;;;8.01;72.13
50636;BME280;36598;46.054;11.130;2023-02-19T02:20:55;99975.09;;;8.03;72.49
50636;BME280;36598;46.054;11.130;2023-02-19T02:31:45;99961.16;;;8.29;71.36
50636;BME280;36598;46.054;11.130;2023-02-19T02:34:15;99963.63;;;8.38;71.46
50636;BME280;36598;46.054;11.130;2023-02-19T02:36:45;99965.19;;;8.36;70.79
50636;BME280;36598;46.054;11.130;2023-02-19T02:39:13;99954.22;;;8.43;70.84
50636;BME280;36598;46.054;11.130;2023-02-19T02:41:40;99955.94;;;8.17;72.44
50636;BME280;36598;46.054;11.130;2023-02-19T02:44:08;99952.00;;;7.77;73.16
50636;BME280;36598;46.054;11.130;2023-02-19T02:46:34;99949.91;;;8.04;72.53
50636;BME280;36598;46.054;11.130;2023-02-19T02:49:11;99944.38;;;8.04;72.66
50636;BME280;36598;46.054;11.130;2023-02-19T02:51:40;99948.59;;;8.32;72.28
50636;BME280;36598;46.054;11.130;2023-02-19T02:54:26;99944.59;;;8.26;71.81
50636;BME280;36598;46.054;11.130;2023-02-19T02:57:12;99945.41;;;8.30;71.78
50636;BME280;36598;46.054;11.130;2023-02-19T02:59:39;99946.75;;;8.47;71.03
50636;BME280;36598;46.054;11.130;2023-02-19T03:02:13;99939.72;;;8.53;70.52
50636;BME280;36598;46.054;11.130;2023-02-19T03:07:29;99943.53;;;8.38;69.84
50636;BME280;36598;46.054;11.130;2023-02-19T03:09:57;99942.41;;;8.42;69.56
50636;BME280;36598;46.054;11.130;2023-02-19T03:12:24;99942.41;;;8.42;69.29
50636;BME280;36598;46.054;11.130;2023-02-19T03:15:10;99932.19;;;8.46;69.14
50636;BME280;36598;46.054;11.130;2023-02-19T03:18:00;99932.50;;;8.38;68.70
50636;BME280;36598;46.054;11.130;2023-02-19T03:20:47;99927.41;;;8.43;67.98
50636;BME280;36598;46.054;11.130;2023-02-19T03:23:14;99936.97;;;8.53;67.65
50636;BME280;36598;46.054;11.130;2023-02-19T03:25:41;99936.22;;;8.60;67.58
50636;BME280;36598;46.054;11.130;2023-02-19T03:28:26;99928.66;;;8.49;67.15
50636;BME280;36598;46.054;11.130;2023-02-19T03:31:12;99931.31;;;8.39;68.53
50636;BME280;36598;46.054;11.130;2023-02-19T03:33:41;99925.81;;;8.39;67.96
50636;BME280;36598;46.054;11.130;2023-02-19T03:36:07;99936.81;;;8.35;68.24
50636;BME280;36598;46.054;11.130;2023-02-19T03:43:40;99933.03;;;8.54;67.21
50636;BME280;36598;46.054;11.130;2023-02-19T03:46:13;99931.03;;;8.51;67.78
50636;BME280;36598;46.054;11.130;2023-02-19T03:48:43;99932.66;;;8.59;66.63
50636;BME280;36598;46.054;11.130;2023-02-19T03:53:57;99937.28;;;8.41;67.69
50636;BME280;36598;46.054;11.130;2023-02-19T03:56:47;99932.56;;;8.45;67.04
50636;BME280;36598;46.054;11.130;2023-02-19T04:01:57;99929.66;;;8.27;67.77
50636;BME280;36598;46.054;11.130;2023-02-19T04:04:29;99931.63;;;8.26;67.63
50636;BME280;36598;46.054;11.130;2023-02-19T04:06:56;99933.88;;;8.17;68.40
50636;BME280;36598;46.054;11.130;2023-02-19T04:09:23;99944.25;;;8.35;67.16
50636;BME280;36598;46.054;11.130;2023-02-19T04:11:50;99941.31;;;8.10;68.24
50636;BME280;36598;46.054;11.130;2023-02-19T04:14:18;99947.66;;;8.17;67.63
50636;BME280;36598;46.054;11.130;2023-02-19T04:16:45;99941.31;;;8.13;67.98
50636;BME280;36598;46.054;11.130;2023-02-19T04:19:12;99940.59;;;8.20;67.14
50636;BME280;36598;46.054;11.130;2023-02-19T04:21:40;99942.94;;;8.14;67.42
50636;BME280;36598;46.054;11.130;2023-02-19T04:24:08;99934.38;;;8.26;66.66
50636;BME280;36598;46.054;11.130;2023-02-19T04:26:35;99933.56;;;8.22;67.09
50636;BME280;36598;46.054;11.130;2023-02-19T04:29:00;99928.38;;;8.17;67.35
50636;BME280;36598;46.054;11.130;2023-02-19T04:31:26;99928.19;;;8.37;66.26
50636;BME280;36598;46.054;11.130;2023-02-19T04:33:52;99916.25;;;8.29;65.99
50636;BME280;36598;46.054;11.130;2023-02-19T04:36:17;99933.59;;;8.29;65.70
50636;BME280;36598;46.054;11.130;2023-02-19T04:38:42;99926.44;;;8.21;65.60
50636;BME280;36598;46.054;11.130;2023-02-19T04:41:08;99928.75;;;8.16;65.71
50636;BME280;36598;46.054;11.130;2023-02-19T04:43:33;99927.13;;;8.11;66.07
50636;BME280;36598;46.054;11.130;2023-02-19T04:45:59;99933.44;;;8.12;66.09
50636;BME280;36598;46.054;11.130;2023-02-19T04:48:25;99931.16;;;8.21;65.67
50636;BME280;36598;46.054;11.130;2023-02-19T04:50:51;99933.56;;;8.22;65.47
50636;BME280;36598;46.054;11.130;2023-02-19T04:53:16;99932.53;;;8.00;66.29
50636;BME280;36598;46.054;11.130;2023-02-19T04:55:41;99923.00;;;7.91;66.54
50636;BME280;36598;46.054;11.130;2023-02-19T04:58:06;99920.69;;;7.93;66.34
50636;BME280;36598;46.054;11.130;2023-02-19T05:03:00;99911.75;;;8.07;66.66
50636;BME280;36598;46.054;11.130;2023-02-19T05:05:25;99906.19;;;7.62;68.19
50636;BME280;36598;46.054;11.130;2023-02-19T05:07:51;99895.84;;;7.89;67.22
50636;BME280;36598;46.054;11.130;2023-02-19T05:10:16;99897.56;;;8.08;66.43
50636;BME280;36598;46.054;11.130;2023-02-19T05:12:41;99887.94;;;7.88;67.26
50636;BME280;36598;46.054;11.130;2023-02-19T05:15:07;99884.03;;;7.89;66.56
50636;BME280;36598;46.054;11.130;2023-02-19T05:17:33;99892.50;;;8.10;65.85
50636;BME280;36598;46.054;11.130;2023-02-19T05:19:58;99891.63;;;8.02;65.55
50636;BME280;36598;46.054;11.130;2023-02-19T05:22:23;99892.28;;;7.48;67.62
50636;BME280;36598;46.054;11.130;2023-02-19T05:24:49;99877.06;;;7.61;66.66
50636;BME280;36598;46.054;11.130;2023-02-19T05:27:14;99884.31;;;7.76;66.37
50636;BME280;36598;46.054;11.130;2023-02-19T05:29:39;99885.06;;;7.73;66.13
50636;BME280;36598;46.054;11.130;2023-02-19T05:32:04;99885.19;;;7.47;66.36
50636;BME280;36598;46.054;11.130;2023-02-19T05:34:30;99882.56;;;7.61;66.30
50636;BME280;36598;46.054;11.130;2023-02-19T05:36:55;99880.41;;;7.81;65.75
50636;BME280;36598;46.054;11.130;2023-02-19T05:39:20;99876.44;;;7.78;65.84
50636;BME280;36598;46.054;11.130;2023-02-19T05:41:45;99887.47;;;7.78;65.79
50636;BME280;36598;46.054;11.130;2023-02-19T05:44:11;99887.50;;;7.82;65.50
50636;BME280;36598;46.054;11.130;2023-02-19T05:46:36;99877.34;;;7.90;65.48
50636;BME280;36598;46.054;11.130;2023-02-19T05:49:02;99876.13;;;7.84;66.00
50636;BME280;36598;46.054;11.130;2023-02-19T05:51:27;99874.59;;;7.90;65.41
50636;BME280;36598;46.054;11.130;2023-02-19T05:53:52;99877.75;;;7.92;65.76
50636;BME280;36598;46.054;11.130;2023-02-19T05:56:30;99875.81;;;7.96;65.28
50636;BME280;36598;46.054;11.130;2023-02-19T05:58:55;99882.94;;;8.00;65.25
50636;BME280;36598;46.054;11.130;2023-02-19T06:01:22;99886.75;;;7.85;65.83
50636;BME280;36598;46.054;11.130;2023-02-19T06:03:47;99885.63;;;7.90;65.38
50636;BME280;36598;46.054;11.130;2023-02-19T06:06:13;99868.66;;;7.88;65.53
50636;BME280;36598;46.054;11.130;2023-02-19T06:08:38;99872.59;;;7.87;65.69
50636;BME280;36598;46.054;11.130;2023-02-19T06:11:03;99873.31;;;7.80;66.37
50636;BME280;36598;46.054;11.130;2023-02-19T06:13:29;99874.22;;;7.95;65.26
50636;BME280;36598;46.054;11.130;2023-02-19T06:15:54;99874.97;;;7.88;65.69
50636;BME280;36598;46.054;11.130;2023-02-19T06:18:20;99866.72;;;7.88;65.45
50636;BME280;36598;46.054;11.130;2023-02-19T06:20:45;99877.94;;;8.13;64.79
50636;BME280;36598;46.054;11.130;2023-02-19T06:23:10;99866.91;;;8.13;64.42
50636;BME280;36598;46.054;11.130;2023-02-19T06:25:36;99870.13;;;8.19;64.31
50636;BME280;36598;46.054;11.130;2023-02-19T06:28:01;99870.44;;;8.10;65.16
50636;BME280;36598;46.054;11.130;2023-02-19T06:30:26;99870.47;;;8.17;64.82
50636;BME280;36598;46.054;11.130;2023-02-19T06:32:51;99865.63;;;8.00;64.66
50636;BME280;36598;46.054;11.130;2023-02-19T06:35:18;99868.41;;;7.59;66.11
50636;BME280;36598;46.054;11.130;2023-02-19T06:37:45;99880.34;;;7.74;66.14
50636;BME280;36598;46.054;11.130;2023-02-19T06:40:10;99882.13;;;7.96;65.61
50636;BME280;36598;46.054;11.130;2023-02-19T06:42:35;99884.19;;;8.07;65.61
50636;BME280;36598;46.054;11.130;2023-02-19T06:45:01;99886.41;;;7.90;65.99
50636;BME280;36598;46.054;11.130;2023-02-19T06:47:29;99886.59;;;8.12;65.58
50636;BME280;36598;46.054;11.130;2023-02-19T06:49:54;99889.59;;;7.96;65.71
50636;BME280;36598;46.054;11.130;2023-02-19T06:52:19;99889.38;;;8.15;64.97
50636;BME280;36598;46.054;11.130;2023-02-19T06:54:45;99887.00;;;8.17;64.92
50636;BME280;36598;46.054;11.130;2023-02-19T06:57:10;99882.47;;;8.39;64.24
50636;BME280;36598;46.054;11.130;2023-02-19T06:59:35;99881.72;;;8.42;64.08
50636;BME280;36598;46.054;11.130;2023-02-19T07:02:01;99890.41;;;8.44;63.32
50636;BME280;36598;46.054;11.130;2023-02-19T07:04:26;99879.94;;;8.16;64.25
50636;BME280;36598;46.054;11.130;2023-02-19T07:06:51;99884.53;;;8.01;64.93
50636;BME280;36598;46.054;11.130;2023-02-19T07:09:16;99886.34;;;8.35;64.13
50636;BME280;36598;46.054;11.130;2023-02-19T07:11:42;99885.88;;;8.18;64.40
50636;BME280;36598;46.054;11.130;2023-02-19T07:14:07;99890.59;;;8.21;64.32
50636;BME280;36598;46.054;11.130;2023-02-19T07:16:37;99899.72;;;8.29;64.02
50636;BME280;36598;46.054;11.130;2023-02-19T07:19:03;99907.59;;;8.31;63.66
50636;BME280;36598;46.054;11.130;2023-02-19T07:21:28;99897.69;;;8.19;64.33
50636;BME280;36598;46.054;11.130;2023-02-19T07:23:54;99908.66;;;8.15;64.73
50636;BME280;36598;46.054;11.130;2023-02-19T07:26:19;99908.13;;;8.40;63.56
50636;BME280;36598;46.054;11.130;2023-02-19T07:28:46;99908.75;;;8.26;63.52
50636;BME280;36598;46.054;11.130;2023-02-19T07:31:12;99913.13;;;8.31;63.76
50636;BME280;36598;46.054;11.130;2023-02-19T07:33:37;99907.69;;;8.38;63.36
50636;BME280;36598;46.054;11.130;2023-02-19T07:36:05;99906.81;;;8.30;63.91
50636;BME280;36598;46.054;11.130;2023-02-19T07:38:30;99913.44;;;8.18;64.06
50636;BME280;36598;46.054;11.130;2023-02-19T07:40:59;99901.06;;;8.01;64.93
50636;BME280;36598;46.054;11.130;2023-02-19T07:43:25;99897.25;;;8.17;64.58
50636;BME280;36598;46.054;11.130;2023-02-19T07:45:51;99901.88;;;8.02;64.83
50636;BME280;36598;46.054;11.130;2023-02-19T07:48:17;99896.09;;;8.21;64.08
50636;BME280;36598;46.054;11.130;2023-02-19T07:50:49;99899.56;;;8.11;64.30
50636;BME280;36598;46.054;11.130;2023-02-19T07:53:14;99901.25;;;8.23;64.16
50636;BME280;36598;46.054;11.130;2023-02-19T07:55:40;99901.06;;;8.01;64.71
50636;BME280;36598;46.054;11.130;2023-02-19T07:58:05;99904.34;;;8.18;63.63
50636;BME280;36598;46.054;11.130;2023-02-19T08:00:30;99903.66;;;8.28;63.98
50636;BME280;36598;46.054;11.130;2023-02-19T08:02:56;99909.50;;;8.19;64.65
50636;BME280;36598;46.054;11.130;2023-02-19T08:05:24;99909.13;;;8.24;64.51
50636;BME280;36598;46.054;11.130;2023-02-19T08:07:49;99911.19;;;8.35;63.87
50636;BME280;36598;46.054;11.130;2023-02-19T08:10:14;99915.06;;;8.26;63.90
50636;BME280;36598;46.054;11.130;2023-02-19T08:12:59;99923.75;;;8.28;64.15
50636;BME280;36598;46.054;11.130;2023-02-19T08:15:43;99914.53;;;8.10;63.48
50636;BME280;36598;46.054;11.130;2023-02-19T08:18:09;99906.16;;;7.99;63.75
50636;BME280;36598;46.054;11.130;2023-02-19T08:20:34;99909.72;;;8.00;63.71
50636;BME280;36598;46.054;11.130;2023-02-19T08:22:59;99898.34;;;8.05;63.20
50636;BME280;36598;46.054;11.130;2023-02-19T08:25:25;99897.22;;;8.13;62.74
50636;BME280;36598;46.054;11.130;2023-02-19T08:27:50;99897.84;;;7.96;63.34
50636;BME280;36598;46.054;11.130;2023-02-19T08:30:15;99903.41;;;7.99;63.13
50636;BME280;36598;46.054;11.130;2023-02-19T08:32:41;99901.25;;;8.23;62.61
50636;BME280;36598;46.054;11.130;2023-02-19T08:35:06;99888.44;;;7.97;62.89
50636;BME280;36598;46.054;11.130;2023-02-19T08:37:31;99902.50;;;8.33;62.33
50636;BME280;36598;46.054;11.130;2023-02-19T08:39:57;99894.00;;;8.04;63.08
50636;BME280;36598;46.054;11.130;2023-02-19T08:42:22;99897.94;;;8.03;63.23
50636;BME280;36598;46.054;11.130;2023-02-19T08:44:47;99901.41;;;7.93;63.55
50636;BME280;36598;46.054;11.130;2023-02-19T08:47:13;99902.53;;;7.92;63.64
50636;BME280;36598;46.054;11.130;2023-02-19T08:49:38;99900.69;;;8.03;62.96
50636;BME280;36598;46.054;11.130;2023-02-19T08:52:04;99904.31;;;8.11;63.24
50636;BME280;36598;46.054;11.130;2023-02-19T08:54:29;99895.19;;;8.03;64.25
50636;BME280;36598;46.054;11.130;2023-02-19T08:56:54;99899.66;;;8.18;63.04
50636;BME280;36598;46.054;11.130;2023-02-19T08:59:20;99911.34;;;8.08;63.67
50636;BME280;36598;46.054;11.130;2023-02-19T09:01:45;99908.25;;;8.10;63.54
50636;BME280;36598;46.054;11.130;2023-02-19T09:04:10;99912.66;;;8.21;63.71
50636;BME280;36598;46.054;11.130;2023-02-19T09:06:36;99905.25;;;8.33;63.30
50636;BME280;36598;46.054;11.130;2023-02-19T09:09:02;99911.81;;;8.17;63.53
50636;BME280;36598;46.054;11.130;2023-02-19T09:11:27;99915.22;;;8.00;64.96
50636;BME280;36598;46.054;11.130;2023-02-19T09:13:54;99916.13;;;8.11;64.17
50636;BME280;36598;46.054;11.130;2023-02-19T09:16:19;99914.25;;;8.22;64.36
50636;BME280;36598;46.054;11.130;2023-02-19T09:18:44;99907.00;;;8.03;65.02
50636;BME280;36598;46.054;11.130;2023-02-19T09:21:10;99911.25;;;8.38;64.32
50636;BME280;36598;46.054;11.130;2023-02-19T09:23:35;99914.41;;;8.40;64.30
50636;BME280;36598;46.054;11.130;2023-02-19T09:26:01;99912.13;;;8.49;64.16
50636;BME280;36598;46.054;11.130;2023-02-19T09:28:30;99903.94;;;8.16;64.87
50636;BME280;36598;46.054;11.130;2023-02-19T09:30:55;99914.25;;;8.22;64.92
50636;BME280;36598;46.054;11.130;2023-02-19T09:33:21;99913.63;;;8.40;64.71
50636;BME280;36598;46.054;11.130;2023-02-19T09:35:46;99906.94;;;8.41;64.65
50636;BME280;36598;46.054;11.130;2023-02-19T09:38:11;99916.16;;;8.63;63.64
50636;BME280;36598;46.054;11.130;2023-02-19T09:40:37;99909.03;;;8.58;63.59
50636;BME280;36598;46.054;11.130;2023-02-19T09:43:06;99906.69;;;8.64;64.27
50636;BME280;36598;46.054;11.130;2023-02-19T09:45:32;99902.38;;;8.66;64.51
50636;BME280;36598;46.054;11.130;2023-02-19T09:47:59;99907.94;;;8.70;64.21
50636;BME280;36598;46.054;11.130;2023-02-19T09:50:27;99911.69;;;8.44;64.69
50636;BME280;36598;46.054;11.130;2023-02-19T09:52:57;99896.91;;;8.77;63.18
50636;BME280;36598;46.054;11.130;2023-02-19T09:55:30;99892.50;;;8.62;63.97
50636;BME280;36598;46.054;11.130;2023-02-19T09:57:58;99883.56;;;8.86;63.47
50636;BME280;36598;46.054;11.130;2023-02-19T10:00:25;99890.34;;;8.96;62.58
50636;BME280;36598;46.054;11.130;2023-02-19T10:02:52;99890.31;;;8.92;62.85
50636;BME280;36598;46.054;11.130;2023-02-19T10:05:18;99885.56;;;8.93;62.42
50636;BME280;36598;46.054;11.130;2023-02-19T10:07:46;99878.81;;;8.80;63.34
50636;BME280;36598;46.054;11.130;2023-02-19T10:12:48;99889.31;;;9.36;61.86
50636;BME280;36598;46.054;11.130;2023-02-19T10:15:37;99870.41;;;9.52;61.68
50636;BME280;36598;46.054;11.130;2023-02-19T10:18:03;99871.47;;;9.09;61.91
50636;BME280;36598;46.054;11.130;2023-02-19T10:20:29;99873.19;;;9.60;60.69
50636;BME280;36598;46.054;11.130;2023-02-19T10:22:59;99868.47;;;9.64;59.69
50636;BME280;36598;46.054;11.130;2023-02-19T10:25:26;99879.53;;;9.89;58.98
50636;BME280;36598;46.054;11.130;2023-02-19T10:27:51;99868.91;;;9.98;59.48
50636;BME280;36598;46.054;11.130;2023-02-19T10:30:19;99874.06;;;10.39;57.99
50636;BME280;36598;46.054;11.130;2023-02-19T10:35:25;99873.22;;;10.49;57.02
50636;BME280;36598;46.054;11.130;2023-02-19T10:37:51;99868.91;;;10.51;57.33
50636;BME280;36598;46.054;11.130;2023-02-19T10:42:45;99857.00;;;10.72;56.82
50636;BME280;36598;46.054;11.130;2023-02-19T10:45:16;99858.19;;;10.75;56.45
50636;BME280;36598;46.054;11.130;2023-02-19T10:47:44;99860.59;;;10.48;57.44
50636;BME280;36598;46.054;11.130;2023-02-19T10:53:19;99861.25;;;11.02;55.67
50636;BME280;36598;46.054;11.130;2023-02-19T10:55:46;99856.09;;;11.04;55.23
50636;BME280;36598;46.054;11.130;2023-02-19T10:58:19;99851.03;;;10.77;56.19
50636;BME280;36598;46.054;11.130;2023-02-19T11:00:45;99841.56;;;11.59;54.25
50636;BME280;36598;46.054;11.130;2023-02-19T11:05:57;99835.53;;;11.71;52.70
50636;BME280;36598;46.054;11.130;2023-02-19T11:08:24;99823.78;;;12.09;52.29
50636;BME280;36598;46.054;11.130;2023-02-19T11:10:49;99825.31;;;12.89;50.51
50636;BME280;36598;46.054;11.130;2023-02-19T11:13:15;99822.50;;;13.81;48.38
50636;BME280;36598;46.054;11.130;2023-02-19T11:15:48;99822.13;;;13.78;47.37
50636;BME280;36598;46.054;11.130;2023-02-19T11:18:23;99816.81;;;14.58;45.81
50636;BME280;36598;46.054;11.130;2023-02-19T11:20:59;99810.09;;;14.56;45.38
50636;BME280;36598;46.054;11.130;2023-02-19T11:25:50;99798.44;;;15.20;44.38
50636;BME280;36598;46.054;11.130;2023-02-19T11:30:54;99789.00;;;16.16;41.53
50636;BME280;36598;46.054;11.130;2023-02-19T11:33:21;99786.94;;;17.71;38.61
50636;BME280;36598;46.054;11.130;2023-02-19T11:35:54;99783.94;;;19.75;34.94
50636;BME280;36598;46.054;11.130;2023-02-19T11:38:21;99771.75;;;21.35;32.06
50636;BME280;36598;46.054;11.130;2023-02-19T11:40:56;99760.50;;;21.35;31.58
50636;BME280;36598;46.054;11.130;2023-02-19T11:46:12;99759.00;;;20.97;31.81
50636;BME280;36598;46.054;11.130;2023-02-19T11:51:21;99732.78;;;20.91;32.26
50636;BME280;36598;46.054;11.130;2023-02-19T11:56:35;99735.06;;;22.01;30.20
50636;BME280;36598;46.054;11.130;2023-02-19T11:59:19;99722.84;;;21.56;31.14
50636;BME280;36598;46.054;11.130;2023-02-19T12:27:28;99680.34;;;16.50;40.18
50636;BME280;36598;46.054;11.130;2023-02-19T12:45:32;99663.19;;;17.89;38.25
50636;BME280;36598;46.054;11.130;2023-02-19T12:50:31;99642.19;;;18.06;37.80
50636;BME280;36598;46.054;11.130;2023-02-19T12:53:04;99646.75;;;17.91;37.94
50636;BME280;36598;46.054;11.130;2023-02-19T12:55:38;99638.22;;;18.16;37.90
50636;BME280;36598;46.054;11.130;2023-02-19T12:58:05;99640.94;;;17.72;38.70
50636;BME280;36598;46.054;11.130;2023-02-19T13:00:42;99637.16;;;17.66;38.17
50636;BME280;36598;46.054;11.130;2023-02-19T13:08:13;99622.84;;;17.04;40.09
50636;BME280;36598;46.054;11.130;2023-02-19T13:10:49;99627.63;;;17.29;39.15
50636;BME280;36598;46.054;11.130;2023-02-19T13:13:23;99618.28;;;16.97;40.24
50636;BME280;36598;46.054;11.130;2023-02-19T13:15:51;99612.88;;;17.16;39.67
50636;BME280;36598;46.054;11.130;2023-02-19T13:18:20;99613.50;;;17.45;38.85
50636;BME280;36598;46.054;11.130;2023-02-19T13:20:46;99602.59;;;16.62;40.61
50636;BME280;36598;46.054;11.130;2023-02-19T13:28:52;99585.09;;;15.77;42.82
50636;BME280;36598;46.054;11.130;2023-02-19T13:34:12;99574.44;;;16.94;40.30
50636;BME280;36598;46.054;11.130;2023-02-19T13:36:41;99572.09;;;16.67;40.96
50636;BME280;36598;46.054;11.130;2023-02-19T13:39:06;99568.91;;;15.72;42.90
50636;BME280;36598;46.054;11.130;2023-02-19T13:41:39;99559.44;;;15.83;43.20
50636;BME280;36598;46.054;11.130;2023-02-19T13:44:06;99563.31;;;16.14;42.53
50636;BME280;36598;46.054;11.130;2023-02-19T13:46:39;99563.34;;;16.52;41.75
50636;BME280;36598;46.054;11.130;2023-02-19T13:51:50;99550.03;;;15.47;44.19
50636;BME280;36598;46.054;11.130;2023-02-19T13:54:20;99559.03;;;15.39;44.46
50636;BME280;36598;46.054;11.130;2023-02-19T13:56:46;99554.72;;;15.21;44.58
50636;BME280;36598;46.054;11.130;2023-02-19T14:02:24;99547.25;;;14.69;46.73
50636;BME280;36598;46.054;11.130;2023-02-19T14:12:02;99538.59;;;13.71;49.11
50636;BME280;36598;46.054;11.130;2023-02-19T14:24:50;99526.69;;;14.63;47.08
50636;BME280;36598;46.054;11.130;2023-02-19T14:27:16;99529.81;;;14.82;46.44
50636;BME280;36598;46.054;11.130;2023-02-19T14:29:42;99542.19;;;14.81;46.82
50636;BME280;36598;46.054;11.130;2023-02-19T14:32:09;99552.00;;;14.33;47.44
50636;BME280;36598;46.054;11.130;2023-02-19T14:34:37;99539.53;;;13.85;49.42
50636;BME280;36598;46.054;11.130;2023-02-19T14:37:03;99545.16;;;14.37;48.63
50636;BME280;36598;46.054;11.130;2023-02-19T14:39:31;99546.13;;;14.47;47.82
50636;BME280;36598;46.054;11.130;2023-02-19T14:42:01;99553.44;;;14.41;47.64
50636;BME280;36598;46.054;11.130;2023-02-19T14:44:30;99551.06;;;14.03;48.78
50636;BME280;36598;46.054;11.130;2023-02-19T14:47:01;99546.44;;;13.96;48.93
50636;BME280;36598;46.054;11.130;2023-02-19T14:49:40;99548.47;;;14.12;48.98
50636;BME280;36598;46.054;11.130;2023-02-19T14:52:14;99552.28;;;13.82;49.56
50636;BME280;36598;46.054;11.130;2023-02-19T14:54:42;99552.47;;;14.11;48.54
50636;BME280;36598;46.054;11.130;2023-02-19T14:57:17;99550.84;;;13.94;49.47
50636;BME280;36598;46.054;11.130;2023-02-19T14:59:56;99552.78;;;13.97;49.76
50636;BME280;36598;46.054;11.130;2023-02-19T15:02:22;99542.63;;;14.26;48.74
50636;BME280;36598;46.054;11.130;2023-02-19T15:04:50;99540.63;;;14.27;48.29
50636;BME280;36598;46.054;11.130;2023-02-19T15:07:23;99547.16;;;14.37;48.08
50636;BME280;36598;46.054;11.130;2023-02-19T15:09:52;99561.16;;;14.33;48.47
50636;BME280;36598;46.054;11.130;2023-02-19T15:12:21;99559.56;;;14.52;48.24
50636;BME280;36598;46.054;11.130;2023-02-19T15:14:48;99554.47;;;14.31;48.82